sensor_id;sensor_type;location;lat;lon;timestamp;pressure;altitude;pressure_sealevel;temperature;humidity
9141;BME280;46330;50.822;7.126;2023-04-01T00:00:48;98862.31;;;10.48;80.27
9141;BME280;46330;50.822;7.126;2023-04-01T00:03:17;98858.56;;;10.54;80.00
9141;BME280;46330;50.822;7.126;2023-04-01T00:05:45;98858.41;;;10.57;79.44
9141;BME280;46330;50.822;7.126;2023-04-01T00:08:14;98866.34;;;10.55;80.21
9141;BME280;46330;50.822;7.126;2023-04-01T00:10:42;98862.94;;;10.53;79.99
9141;BME280;46330;50.822;7.126;2023-04-01T00:13:10;98863.78;;;10.54;80.13
9141;BME280;46330;50.822;7.126;2023-04-01T00:15:38;98852.47;;;10.53;79.88
9141;BME280;46330;50.822;7.126;2023-04-01T00:18:07;98863.66;;;10.57;79.19
9141;BME280;46330;50.822;7.126;2023-04-01T00:20:35;98860.28;;;10.55;79.74
9141;BME280;46330;50.822;7.126;2023-04-01T00:23:04;98853.34;;;10.54;79.93
9141;BME280;46330;50.822;7.126;2023-04-01T00:25:32;98861.19;;;10.54;80.00
9141;BME280;46330;50.822;7.126;2023-04-01T00:28:00;98849.81;;;10.55;79.72
9141;BME280;46330;50.822;7.126;2023-04-01T00:30:28;98855.03;;;10.55;79.90
9141;BME280;46330;50.822;7.126;2023-04-01T00:32:57;98849.81;;;10.55;80.48
9141;BME280;46330;50.822;7.126;2023-04-01T00:35:26;98854.19;;;10.54;79.86
9141;BME280;46330;50.822;7.126;2023-04-01T00:37:55;98850.88;;;10.51;80.65
9141;BME280;46330;50.822;7.126;2023-04-01T00:40:26;98839.56;;;10.50;80.83
9141;BME280;46330;50.822;7.126;2023-04-01T00:42:55;98844.72;;;10.52;81.19
9141;BME280;46330;50.822;7.126;2023-04-01T00:45:30;98851.78;;;10.50;80.85
9141;BME280;46330;50.822;7.126;2023-04-01T00:48:02;98849.31;;;10.47;80.98
9141;BME280;46330;50.822;7.126;2023-04-01T00:50:34;98849.31;;;10.47;80.79
9141;BME280;46330;50.822;7.126;2023-04-01T00:53:03;98851.03;;;10.48;81.30
9141;BME280;46330;50.822;7.126;2023-04-01T00:55:35;98846.63;;;10.48;80.83
9141;BME280;46330;50.822;7.126;2023-04-01T00:58:07;98849.31;;;10.47;80.75
9141;BME280;46330;50.822;7.126;2023-04-01T01:00:37;98839.78;;;10.46;81.30
9141;BME280;46330;50.822;7.126;2023-04-01T01:03:06;98846.78;;;10.45;81.00
9141;BME280;46330;50.822;7.126;2023-04-01T01:05:52;98840.63;;;10.46;81.87
9141;BME280;46330;50.822;7.126;2023-04-01T01:08:29;98840.63;;;10.46;81.41
9141;BME280;46330;50.822;7.126;2023-04-01T01:10:59;98833.72;;;10.45;81.63
9141;BME280;46330;50.822;7.126;2023-04-01T01:13:33;98833.78;;;10.44;81.16
9141;BME280;46330;50.822;7.126;2023-04-01T01:16:06;98839.00;;;10.44;80.80
9141;BME280;46330;50.822;7.126;2023-04-01T01:18:41;98842.31;;;10.47;80.44
9141;BME280;46330;50.822;7.126;2023-04-01T01:21:31;98839.84;;;10.44;80.11
9141;BME280;46330;50.822;7.126;2023-04-01T01:24:21;98843.31;;;10.45;80.36
9141;BME280;46330;50.822;7.126;2023-04-01T01:27:02;98838.09;;;10.45;81.09
9141;BME280;46330;50.822;7.126;2023-04-01T01:32:49;98836.34;;;10.45;80.58
9141;BME280;46330;50.822;7.126;2023-04-01T01:35:28;98835.34;;;10.48;80.80
9141;BME280;46330;50.822;7.126;2023-04-01T01:38:02;98835.38;;;10.46;80.42
9141;BME280;46330;50.822;7.126;2023-04-01T01:40:33;98822.41;;;10.45;79.88
9141;BME280;46330;50.822;7.126;2023-04-01T01:43:05;98838.09;;;10.45;80.43
9141;BME280;46330;50.822;7.126;2023-04-01T01:45:36;98832.78;;;10.46;80.48
9141;BME280;46330;50.822;7.126;2023-04-01T01:48:07;98833.63;;;10.47;80.29
9141;BME280;46330;50.822;7.126;2023-04-01T01:50:38;98829.50;;;10.43;80.40
9141;BME280;46330;50.822;7.126;2023-04-01T01:53:11;98827.63;;;10.45;80.23
9141;BME280;46330;50.822;7.126;2023-04-01T01:55:41;98828.50;;;10.45;79.39
9141;BME280;46330;50.822;7.126;2023-04-01T01:58:12;98825.09;;;10.43;80.28
9141;BME280;46330;50.822;7.126;2023-04-01T02:00:44;98817.34;;;10.42;80.03
9141;BME280;46330;50.822;7.126;2023-04-01T02:03:14;98826.03;;;10.42;80.40
9141;BME280;46330;50.822;7.126;2023-04-01T02:05:45;98837.38;;;10.41;80.14
9141;BME280;46330;50.822;7.126;2023-04-01T02:08:16;98834.00;;;10.39;79.83
9141;BME280;46330;50.822;7.126;2023-04-01T02:10:56;98839.16;;;10.41;79.72
9141;BME280;46330;50.822;7.126;2023-04-01T02:13:33;98821.72;;;10.41;79.23
9141;BME280;46330;50.822;7.126;2023-04-01T02:16:06;98830.47;;;10.40;79.63
9141;BME280;46330;50.822;7.126;2023-04-01T02:18:37;98827.16;;;10.37;79.93
9141;BME280;46330;50.822;7.126;2023-04-01T02:21:08;98828.00;;;10.37;79.56
9141;BME280;46330;50.822;7.126;2023-04-01T02:23:37;98834.16;;;10.36;79.93
9141;BME280;46330;50.822;7.126;2023-04-01T02:26:07;98835.16;;;10.34;79.67
9141;BME280;46330;50.822;7.126;2023-04-01T02:28:38;98836.06;;;10.33;79.79
9141;BME280;46330;50.822;7.126;2023-04-01T02:31:08;98834.34;;;10.32;81.03
9141;BME280;46330;50.822;7.126;2023-04-01T02:33:38;98834.66;;;10.25;80.89
9141;BME280;46330;50.822;7.126;2023-04-01T02:36:10;98828.66;;;10.23;81.05
9141;BME280;46330;50.822;7.126;2023-04-01T02:38:41;98836.84;;;10.16;82.01
9141;BME280;46330;50.822;7.126;2023-04-01T02:41:10;98836.94;;;10.13;83.99
9141;BME280;46330;50.822;7.126;2023-04-01T02:43:38;98837.31;;;10.05;84.95
9141;BME280;46330;50.822;7.126;2023-04-01T02:46:06;98841.03;;;10.00;86.04
9141;BME280;46330;50.822;7.126;2023-04-01T02:48:34;98835.38;;;9.90;87.48
9141;BME280;46330;50.822;7.126;2023-04-01T02:51:02;98838.22;;;9.86;87.00
9141;BME280;46330;50.822;7.126;2023-04-01T02:53:32;98842.72;;;9.82;87.49
9141;BME280;46330;50.822;7.126;2023-04-01T02:56:00;98838.41;;;9.81;88.25
9141;BME280;46330;50.822;7.126;2023-04-01T02:58:28;98840.19;;;9.81;89.06
9141;BME280;46330;50.822;7.126;2023-04-01T03:00:56;98845.81;;;9.71;89.52
9141;BME280;46330;50.822;7.126;2023-04-01T03:03:23;98838.91;;;9.70;90.40
9141;BME280;46330;50.822;7.126;2023-04-01T03:05:51;98828.66;;;9.66;90.09
9141;BME280;46330;50.822;7.126;2023-04-01T03:08:21;98828.94;;;9.60;91.10
9141;BME280;46330;50.822;7.126;2023-04-01T03:10:55;98830.81;;;9.56;91.74
9141;BME280;46330;50.822;7.126;2023-04-01T03:13:26;98829.97;;;9.56;92.07
9141;BME280;46330;50.822;7.126;2023-04-01T03:15:54;98823.09;;;9.55;93.57
9141;BME280;46330;50.822;7.126;2023-04-01T03:18:22;98824.91;;;9.53;94.31
9141;BME280;46330;50.822;7.126;2023-04-01T03:20:50;98826.88;;;9.48;95.52
9141;BME280;46330;50.822;7.126;2023-04-01T03:23:18;98818.69;;;9.37;94.93
9141;BME280;46330;50.822;7.126;2023-04-01T03:25:47;98822.09;;;9.37;97.10
9141;BME280;46330;50.822;7.126;2023-04-01T03:28:17;98824.84;;;9.34;96.89
9141;BME280;46330;50.822;7.126;2023-04-01T03:30:44;98819.63;;;9.34;97.19
9141;BME280;46330;50.822;7.126;2023-04-01T03:33:12;98818.00;;;9.32;96.33
9141;BME280;46330;50.822;7.126;2023-04-01T03:35:40;98831.06;;;9.32;95.38
9141;BME280;46330;50.822;7.126;2023-04-01T03:38:08;98826.63;;;9.34;95.50
9141;BME280;46330;50.822;7.126;2023-04-01T03:40:36;98824.03;;;9.34;94.87
9141;BME280;46330;50.822;7.126;2023-04-01T03:43:05;98822.97;;;9.38;94.68
9141;BME280;46330;50.822;7.126;2023-04-01T03:45:43;98836.72;;;9.41;94.82
9141;BME280;46330;50.822;7.126;2023-04-01T03:48:12;98823.69;;;9.41;93.97
9141;BME280;46330;50.822;7.126;2023-04-01T03:50:40;98830.47;;;9.45;93.03
9141;BME280;46330;50.822;7.126;2023-04-01T03:53:08;98827.78;;;9.47;92.23
9141;BME280;46330;50.822;7.126;2023-04-01T03:55:39;98822.28;;;9.53;90.16
9141;BME280;46330;50.822;7.126;2023-04-01T03:58:07;98831.81;;;9.54;90.24
9141;BME280;46330;50.822;7.126;2023-04-01T04:00:35;98826.59;;;9.54;90.03
9141;BME280;46330;50.822;7.126;2023-04-01T04:03:05;98829.94;;;9.57;90.15
9141;BME280;46330;50.822;7.126;2023-04-01T04:05:34;98827.44;;;9.54;89.70
9141;BME280;46330;50.822;7.126;2023-04-01T04:08:03;98828.22;;;9.56;89.92
9141;BME280;46330;50.822;7.126;2023-04-01T04:10:32;98834.97;;;9.62;89.22
9141;BME280;46330;50.822;7.126;2023-04-01T04:13:01;98834.09;;;9.61;89.75
9141;BME280;46330;50.822;7.126;2023-04-01T04:15:33;98837.34;;;9.66;87.93
9141;BME280;46330;50.822;7.126;2023-04-01T04:18:01;98835.59;;;9.67;88.24
9141;BME280;46330;50.822;7.126;2023-04-01T04:20:31;98831.22;;;9.67;88.36
9141;BME280;46330;50.822;7.126;2023-04-01T04:23:00;98838.97;;;9.69;87.91
9141;BME280;46330;50.822;7.126;2023-04-01T04:25:27;98832.69;;;9.73;87.55
9141;BME280;46330;50.822;7.126;2023-04-01T04:27:56;98842.16;;;9.76;87.91
9141;BME280;46330;50.822;7.126;2023-04-01T04:30:24;98837.97;;;9.71;87.39
9141;BME280;46330;50.822;7.126;2023-04-01T04:32:51;98839.69;;;9.72;88.60
9141;BME280;46330;50.822;7.126;2023-04-01T04:35:20;98837.22;;;9.69;88.33
9141;BME280;46330;50.822;7.126;2023-04-01T04:37:49;98844.13;;;9.70;88.56
9141;BME280;46330;50.822;7.126;2023-04-01T04:40:17;98839.81;;;9.69;89.24
9141;BME280;46330;50.822;7.126;2023-04-01T04:42:45;98842.56;;;9.66;89.63
9141;BME280;46330;50.822;7.126;2023-04-01T04:45:15;98837.44;;;9.65;89.47
9141;BME280;46330;50.822;7.126;2023-04-01T04:47:52;98840.81;;;9.67;89.35
9141;BME280;46330;50.822;7.126;2023-04-01T04:50:20;98847.03;;;9.64;90.38
9141;BME280;46330;50.822;7.126;2023-04-01T04:52:49;98846.31;;;9.61;90.66
9141;BME280;46330;50.822;7.126;2023-04-01T04:55:18;98842.19;;;9.55;91.67
9141;BME280;46330;50.822;7.126;2023-04-01T04:57:52;98848.19;;;9.57;92.15
9141;BME280;46330;50.822;7.126;2023-04-01T05:00:20;98851.84;;;9.53;93.17
9141;BME280;46330;50.822;7.126;2023-04-01T05:02:59;98858.31;;;9.45;93.14
9141;BME280;46330;50.822;7.126;2023-04-01T05:05:27;98855.56;;;9.48;93.36
9141;BME280;46330;50.822;7.126;2023-04-01T05:07:58;98862.69;;;9.44;94.07
9141;BME280;46330;50.822;7.126;2023-04-01T05:10:26;98862.63;;;9.46;94.89
9141;BME280;46330;50.822;7.126;2023-04-01T05:12:54;98861.84;;;9.44;95.83
9141;BME280;46330;50.822;7.126;2023-04-01T05:15:22;98862.22;;;9.35;96.25
9141;BME280;46330;50.822;7.126;2023-04-01T05:17:50;98864.91;;;9.33;95.79
9141;BME280;46330;50.822;7.126;2023-04-01T05:20:18;98860.41;;;9.37;95.40
9141;BME280;46330;50.822;7.126;2023-04-01T05:22:46;98856.41;;;9.28;96.64
9141;BME280;46330;50.822;7.126;2023-04-01T05:25:16;98869.34;;;9.31;97.41
9141;BME280;46330;50.822;7.126;2023-04-01T05:27:44;98875.34;;;9.33;97.78
9141;BME280;46330;50.822;7.126;2023-04-01T05:30:12;98874.81;;;9.25;97.93
9141;BME280;46330;50.822;7.126;2023-04-01T05:32:56;98867.06;;;9.24;98.64
9141;BME280;46330;50.822;7.126;2023-04-01T05:35:24;98865.38;;;9.23;98.60
9141;BME280;46330;50.822;7.126;2023-04-01T05:37:52;98875.75;;;9.24;99.23
9141;BME280;46330;50.822;7.126;2023-04-01T05:40:22;98869.00;;;9.18;100.00
9141;BME280;46330;50.822;7.126;2023-04-01T05:42:50;98875.16;;;9.17;99.80
9141;BME280;46330;50.822;7.126;2023-04-01T05:45:17;98878.63;;;9.18;99.88
9141;BME280;46330;50.822;7.126;2023-04-01T05:48:04;98879.25;;;9.23;100.00
9141;BME280;46330;50.822;7.126;2023-04-01T05:50:39;98882.03;;;9.18;100.00
9141;BME280;46330;50.822;7.126;2023-04-01T05:53:09;98878.22;;;9.27;100.00
9141;BME280;46330;50.822;7.126;2023-04-01T05:55:41;98875.88;;;9.21;100.00
9141;BME280;46330;50.822;7.126;2023-04-01T05:58:09;98884.78;;;9.15;100.00
9141;BME280;46330;50.822;7.126;2023-04-01T06:00:41;98883.84;;;9.18;100.00
9141;BME280;46330;50.822;7.126;2023-04-01T06:03:09;98886.22;;;9.23;100.00
9141;BME280;46330;50.822;7.126;2023-04-01T06:05:39;98882.91;;;9.19;100.00
9141;BME280;46330;50.822;7.126;2023-04-01T06:08:11;98887.22;;;9.20;100.00
9141;BME280;46330;50.822;7.126;2023-04-01T06:11:00;98887.25;;;9.18;100.00
9141;BME280;46330;50.822;7.126;2023-04-01T06:13:41;98890.59;;;9.22;100.00
9141;BME280;46330;50.822;7.126;2023-04-01T06:16:20;98895.69;;;9.25;100.00
9141;BME280;46330;50.822;7.126;2023-04-01T06:19:03;98906.91;;;9.27;100.00
9141;BME280;46330;50.822;7.126;2023-04-01T06:25:15;98905.81;;;9.33;100.00
9141;BME280;46330;50.822;7.126;2023-04-01T06:28:01;98911.66;;;9.38;100.00
9141;BME280;46330;50.822;7.126;2023-04-01T06:30:40;98918.66;;;9.37;100.00
9141;BME280;46330;50.822;7.126;2023-04-01T06:33:32;98918.66;;;9.37;100.00
9141;BME280;46330;50.822;7.126;2023-04-01T06:36:18;98916.03;;;9.37;100.00
9141;BME280;46330;50.822;7.126;2023-04-01T06:39:12;98920.44;;;9.37;100.00
9141;BME280;46330;50.822;7.126;2023-04-01T06:42:02;98919.31;;;9.42;100.00
9141;BME280;46330;50.822;7.126;2023-04-01T06:44:43;98920.16;;;9.43;100.00
9141;BME280;46330;50.822;7.126;2023-04-01T06:47:43;98917.31;;;9.49;100.00
9141;BME280;46330;50.822;7.126;2023-04-01T06:50:40;98923.03;;;9.57;100.00
9141;BME280;46330;50.822;7.126;2023-04-01T06:53:39;98921.41;;;9.54;100.00
9141;BME280;46330;50.822;7.126;2023-04-01T06:56:32;98930.69;;;9.61;100.00
9141;BME280;46330;50.822;7.126;2023-04-01T06:59:28;98924.84;;;9.75;100.00
9141;BME280;46330;50.822;7.126;2023-04-01T07:02:01;98944.66;;;9.81;100.00
9141;BME280;46330;50.822;7.126;2023-04-01T07:04:36;98930.66;;;9.82;100.00
9141;BME280;46330;50.822;7.126;2023-04-01T07:07:14;98933.34;;;9.80;100.00
9141;BME280;46330;50.822;7.126;2023-04-01T07:09:55;98937.22;;;9.90;100.00
9141;BME280;46330;50.822;7.126;2023-04-01T07:12:38;98942.81;;;9.83;99.66
9141;BME280;46330;50.822;7.126;2023-04-01T07:15:48;98931.50;;;9.82;99.32
9141;BME280;46330;50.822;7.126;2023-04-01T07:18:23;98939.34;;;9.82;100.00
9141;BME280;46330;50.822;7.126;2023-04-01T07:20:53;98940.25;;;9.81;100.00
9141;BME280;46330;50.822;7.126;2023-04-01T07:23:24;98947.00;;;9.87;100.00
9141;BME280;46330;50.822;7.126;2023-04-01T07:26:05;98944.16;;;9.91;100.00
9141;BME280;46330;50.822;7.126;2023-04-01T07:28:57;98948.22;;;9.98;100.00
9141;BME280;46330;50.822;7.126;2023-04-01T07:31:54;98952.00;;;9.91;100.00
9141;BME280;46330;50.822;7.126;2023-04-01T07:34:30;98954.69;;;9.90;100.00
9141;BME280;46330;50.822;7.126;2023-04-01T07:37:06;98954.22;;;9.80;100.00
9141;BME280;46330;50.822;7.126;2023-04-01T07:39:41;98950.69;;;9.81;100.00
9141;BME280;46330;50.822;7.126;2023-04-01T07:42:23;98960.38;;;9.79;100.00
9141;BME280;46330;50.822;7.126;2023-04-01T07:44:59;98963.25;;;9.73;100.00
9141;BME280;46330;50.822;7.126;2023-04-01T07:47:44;98963.25;;;9.73;100.00
9141;BME280;46330;50.822;7.126;2023-04-01T07:50:25;98965.47;;;9.62;100.00
9141;BME280;46330;50.822;7.126;2023-04-01T07:53:02;98964.41;;;9.66;100.00
9141;BME280;46330;50.822;7.126;2023-04-01T07:55:40;98967.09;;;9.64;100.00
9141;BME280;46330;50.822;7.126;2023-04-01T07:58:14;98980.66;;;9.72;100.00
9141;BME280;46330;50.822;7.126;2023-04-01T08:00:51;98971.97;;;9.72;100.00
9141;BME280;46330;50.822;7.126;2023-04-01T08:03:38;98970.09;;;9.76;100.00
9141;BME280;46330;50.822;7.126;2023-04-01T08:06:19;98979.16;;;9.67;100.00
9141;BME280;46330;50.822;7.126;2023-04-01T08:08:59;98977.44;;;9.66;100.00
9141;BME280;46330;50.822;7.126;2023-04-01T08:11:59;98983.78;;;9.60;100.00
9141;BME280;46330;50.822;7.126;2023-04-01T08:15:07;99003.56;;;9.66;100.00
9141;BME280;46330;50.822;7.126;2023-04-01T08:18:16;98992.59;;;9.58;100.00
9141;BME280;46330;50.822;7.126;2023-04-01T08:20:53;99002.19;;;9.57;100.00
9141;BME280;46330;50.822;7.126;2023-04-01T08:23:27;99000.91;;;9.67;100.00
9141;BME280;46330;50.822;7.126;2023-04-01T08:26:00;99005.78;;;9.75;100.00
9141;BME280;46330;50.822;7.126;2023-04-01T08:28:39;99004.75;;;9.79;100.00
9141;BME280;46330;50.822;7.126;2023-04-01T08:31:13;99009.06;;;9.80;100.00
9141;BME280;46330;50.822;7.126;2023-04-01T08:33:45;99009.00;;;9.82;100.00
9141;BME280;46330;50.822;7.126;2023-04-01T08:36:16;99015.00;;;9.84;100.00
9141;BME280;46330;50.822;7.126;2023-04-01T08:38:57;99013.44;;;9.80;100.00
9141;BME280;46330;50.822;7.126;2023-04-01T08:41:56;99024.78;;;9.79;100.00
9141;BME280;46330;50.822;7.126;2023-04-01T08:44:57;99024.78;;;9.79;100.00
9141;BME280;46330;50.822;7.126;2023-04-01T08:47:53;99023.88;;;9.80;100.00
9141;BME280;46330;50.822;7.126;2023-04-01T08:50:35;99026.03;;;9.90;100.00
9141;BME280;46330;50.822;7.126;2023-04-01T08:53:21;99029.81;;;9.83;100.00
9141;BME280;46330;50.822;7.126;2023-04-01T08:56:05;99042.03;;;9.83;100.00
9141;BME280;46330;50.822;7.126;2023-04-01T09:01:50;99044.50;;;9.86;100.00
9141;BME280;46330;50.822;7.126;2023-04-01T09:05:23;99052.81;;;9.95;100.00
9141;BME280;46330;50.822;7.126;2023-04-01T09:08:01;99041.56;;;9.93;100.00
9141;BME280;46330;50.822;7.126;2023-04-01T09:14:12;99048.09;;;10.03;100.00
9141;BME280;46330;50.822;7.126;2023-04-01T09:20:03;99056.59;;;9.88;100.00
9141;BME280;46330;50.822;7.126;2023-04-01T09:22:54;99074.31;;;10.02;100.00
9141;BME280;46330;50.822;7.126;2023-04-01T09:25:49;99071.00;;;9.97;100.00
9141;BME280;46330;50.822;7.126;2023-04-01T09:28:27;99070.63;;;9.86;100.00
9141;BME280;46330;50.822;7.126;2023-04-01T09:31:26;99074.09;;;9.86;100.00
9141;BME280;46330;50.822;7.126;2023-04-01T09:34:35;99081.97;;;9.85;100.00
9141;BME280;46330;50.822;7.126;2023-04-01T09:37:29;99078.16;;;9.71;100.00
9141;BME280;46330;50.822;7.126;2023-04-01T09:40:15;99086.47;;;9.81;100.00
9141;BME280;46330;50.822;7.126;2023-04-01T09:43:06;99087.88;;;9.90;100.00
9141;BME280;46330;50.822;7.126;2023-04-01T09:45:51;99077.28;;;9.93;100.00
9141;BME280;46330;50.822;7.126;2023-04-01T09:48:39;99093.66;;;9.96;100.00
9141;BME280;46330;50.822;7.126;2023-04-01T09:51:22;99093.47;;;10.01;100.00
9141;BME280;46330;50.822;7.126;2023-04-01T09:54:03;99098.28;;;10.11;100.00
9141;BME280;46330;50.822;7.126;2023-04-01T10:00:19;99103.22;;;9.97;100.00
9141;BME280;46330;50.822;7.126;2023-04-01T10:03:02;99099.22;;;10.09;100.00
9141;BME280;46330;50.822;7.126;2023-04-01T10:06:17;99109.66;;;10.31;100.00
9141;BME280;46330;50.822;7.126;2023-04-01T10:12:28;99117.63;;;10.27;100.00
9141;BME280;46330;50.822;7.126;2023-04-01T10:15:25;99108.25;;;10.23;100.00
9141;BME280;46330;50.822;7.126;2023-04-01T10:18:14;99121.91;;;10.30;100.00
9141;BME280;46330;50.822;7.126;2023-04-01T10:21:04;99130.00;;;10.24;100.00
9141;BME280;46330;50.822;7.126;2023-04-01T10:24:05;99127.03;;;10.32;100.00
9141;BME280;46330;50.822;7.126;2023-04-01T10:27:05;99130.13;;;10.41;100.00
9141;BME280;46330;50.822;7.126;2023-04-01T10:36:17;99134.03;;;10.51;100.00
9141;BME280;46330;50.822;7.126;2023-04-01T10:42:38;99138.84;;;10.40;100.00
9141;BME280;46330;50.822;7.126;2023-04-01T10:45:50;99139.13;;;10.54;100.00
9141;BME280;46330;50.822;7.126;2023-04-01T10:51:44;99143.50;;;10.54;100.00
9141;BME280;46330;50.822;7.126;2023-04-01T10:54:49;99144.16;;;10.59;100.00
9141;BME280;46330;50.822;7.126;2023-04-01T11:21:28;99159.19;;;10.74;97.58
9141;BME280;46330;50.822;7.126;2023-04-01T11:24:33;99163.03;;;10.86;97.92
9141;BME280;46330;50.822;7.126;2023-04-01T11:27:38;99174.00;;;10.94;98.71
9141;BME280;46330;50.822;7.126;2023-04-01T11:30:18;99166.00;;;10.97;nan
9141;BME280;46330;50.822;7.126;2023-04-01T11:32:54;99167.91;;;10.93;100.00
9141;BME280;46330;50.822;7.126;2023-04-01T11:35:47;99174.59;;;11.00;100.00
9141;BME280;46330;50.822;7.126;2023-04-01T11:38:26;99170.25;;;10.99;100.00
9141;BME280;46330;50.822;7.126;2023-04-01T11:41:01;99172.97;;;11.16;100.00
9141;BME280;46330;50.822;7.126;2023-04-01T11:44:10;99184.31;;;11.36;100.00
9141;BME280;46330;50.822;7.126;2023-04-01T11:47:22;99182.19;;;11.62;100.00
9141;BME280;46330;50.822;7.126;2023-04-01T11:50:02;99184.03;;;11.42;100.00
9141;BME280;46330;50.822;7.126;2023-04-01T11:53:02;99184.59;;;11.48;100.00
9141;BME280;46330;50.822;7.126;2023-04-01T11:55:44;99186.78;;;11.57;100.00
9141;BME280;46330;50.822;7.126;2023-04-01T11:58:29;99198.91;;;11.60;97.92
9141;BME280;46330;50.822;7.126;2023-04-01T12:01:14;99202.81;;;11.70;97.01
9141;BME280;46330;50.822;7.126;2023-04-01T12:04:27;99198.78;;;11.81;98.77
9141;BME280;46330;50.822;7.126;2023-04-01T12:07:05;99202.94;;;11.85;98.71
9141;BME280;46330;50.822;7.126;2023-04-01T12:09:42;99202.09;;;11.85;99.27
9141;BME280;46330;50.822;7.126;2023-04-01T12:12:18;99210.69;;;11.70;100.00
9141;BME280;46330;50.822;7.126;2023-04-01T12:14:58;99211.69;;;11.47;99.14
9141;BME280;46330;50.822;7.126;2023-04-01T12:17:36;99216.78;;;11.31;98.05
9141;BME280;46330;50.822;7.126;2023-04-01T12:20:30;99218.31;;;11.17;99.80
9141;BME280;46330;50.822;7.126;2023-04-01T12:23:09;99216.84;;;11.11;100.00
9141;BME280;46330;50.822;7.126;2023-04-01T12:26:06;99220.72;;;11.21;100.00
9141;BME280;46330;50.822;7.126;2023-04-01T12:28:44;99223.28;;;11.23;100.00
9141;BME280;46330;50.822;7.126;2023-04-01T12:31:21;99225.50;;;11.32;100.00
9141;BME280;46330;50.822;7.126;2023-04-01T12:34:10;99233.25;;;11.33;100.00
9141;BME280;46330;50.822;7.126;2023-04-01T12:36:53;99238.50;;;11.33;100.00
9141;BME280;46330;50.822;7.126;2023-04-01T12:39:51;99238.19;;;11.21;100.00
9141;BME280;46330;50.822;7.126;2023-04-01T12:42:35;99236.84;;;11.12;100.00
9141;BME280;46330;50.822;7.126;2023-04-01T12:45:28;99239.25;;;10.97;100.00
9141;BME280;46330;50.822;7.126;2023-04-01T12:48:15;99243.31;;;11.04;100.00
9141;BME280;46330;50.822;7.126;2023-04-01T12:51:11;99245.09;;;11.03;98.34
9141;BME280;46330;50.822;7.126;2023-04-01T12:53:59;99247.50;;;11.08;99.38
9141;BME280;46330;50.822;7.126;2023-04-01T12:56:40;99244.94;;;11.06;98.49
9141;BME280;46330;50.822;7.126;2023-04-01T12:59:42;99249.78;;;11.15;100.00
9141;BME280;46330;50.822;7.126;2023-04-01T13:02:24;99253.09;;;11.39;99.90
9141;BME280;46330;50.822;7.126;2023-04-01T13:07:58;99254.75;;;11.21;98.05
9141;BME280;46330;50.822;7.126;2023-04-01T13:10:37;99254.75;;;11.21;97.44
9141;BME280;46330;50.822;7.126;2023-04-01T13:13:28;99271.16;;;11.25;96.58
9141;BME280;46330;50.822;7.126;2023-04-01T13:16:03;99273.28;;;11.17;96.83
9141;BME280;46330;50.822;7.126;2023-04-01T13:18:44;99262.13;;;11.12;97.26
9141;BME280;46330;50.822;7.126;2023-04-01T13:21:23;99279.88;;;11.25;98.10
9141;BME280;46330;50.822;7.126;2023-04-01T13:24:00;99282.09;;;11.34;97.04
9141;BME280;46330;50.822;7.126;2023-04-01T13:26:39;99271.91;;;11.47;96.56
9141;BME280;46330;50.822;7.126;2023-04-01T13:29:13;99284.56;;;11.38;95.92
9141;BME280;46330;50.822;7.126;2023-04-01T13:31:53;99279.59;;;11.31;95.50
9141;BME280;46330;50.822;7.126;2023-04-01T13:34:32;99281.47;;;11.48;96.58
9141;BME280;46330;50.822;7.126;2023-04-01T13:37:12;99278.16;;;11.45;95.94
9141;BME280;46330;50.822;7.126;2023-04-01T13:39:55;99281.41;;;11.68;96.35
9141;BME280;46330;50.822;7.126;2023-04-01T13:42:28;99287.59;;;11.67;96.14
9141;BME280;46330;50.822;7.126;2023-04-01T13:45:01;99293.81;;;11.65;96.16
9141;BME280;46330;50.822;7.126;2023-04-01T13:48:01;99286.75;;;11.67;96.10
9141;BME280;46330;50.822;7.126;2023-04-01T13:50:39;99295.38;;;11.69;95.46
9141;BME280;46330;50.822;7.126;2023-04-01T13:53:49;99293.59;;;11.51;95.97
9141;BME280;46330;50.822;7.126;2023-04-01T13:56:34;99304.47;;;11.42;97.48
9141;BME280;46330;50.822;7.126;2023-04-01T13:59:25;99305.00;;;11.29;100.00
9141;BME280;46330;50.822;7.126;2023-04-01T14:02:13;99311.03;;;11.11;100.00
9141;BME280;46330;50.822;7.126;2023-04-01T14:04:56;99312.31;;;11.21;100.00
9141;BME280;46330;50.822;7.126;2023-04-01T14:07:46;99308.84;;;11.21;100.00
9141;BME280;46330;50.822;7.126;2023-04-01T14:10:24;99310.91;;;11.53;100.00
9141;BME280;46330;50.822;7.126;2023-04-01T14:13:00;99319.22;;;11.83;98.47
9141;BME280;46330;50.822;7.126;2023-04-01T14:15:47;99320.03;;;11.83;97.63
9141;BME280;46330;50.822;7.126;2023-04-01T14:18:33;99315.56;;;11.67;97.42
9141;BME280;46330;50.822;7.126;2023-04-01T14:21:23;99325.91;;;11.50;96.10
9141;BME280;46330;50.822;7.126;2023-04-01T14:24:05;99328.66;;;11.47;95.50
9141;BME280;46330;50.822;7.126;2023-04-01T14:27:06;99326.66;;;11.73;95.07
9141;BME280;46330;50.822;7.126;2023-04-01T14:29:48;99325.00;;;11.71;94.63
9141;BME280;46330;50.822;7.126;2023-04-01T14:32:29;99326.31;;;11.61;95.15
9141;BME280;46330;50.822;7.126;2023-04-01T14:35:22;99325.84;;;11.71;95.33
9141;BME280;46330;50.822;7.126;2023-04-01T14:38:05;99330.47;;;11.65;94.86
9141;BME280;46330;50.822;7.126;2023-04-01T14:40:50;99345.41;;;11.43;96.71
9141;BME280;46330;50.822;7.126;2023-04-01T14:43:32;99334.56;;;11.72;97.55
9141;BME280;46330;50.822;7.126;2023-04-01T14:46:35;99338.41;;;11.63;96.32
9141;BME280;46330;50.822;7.126;2023-04-01T14:49:17;99345.03;;;11.72;97.22
9141;BME280;46330;50.822;7.126;2023-04-01T14:51:48;99339.88;;;11.70;97.29
9141;BME280;46330;50.822;7.126;2023-04-01T14:54:18;99344.03;;;11.74;98.21
9141;BME280;46330;50.822;7.126;2023-04-01T14:56:50;99343.34;;;11.51;97.79
9141;BME280;46330;50.822;7.126;2023-04-01T14:59:27;99352.44;;;11.42;100.00
9141;BME280;46330;50.822;7.126;2023-04-01T15:02:01;99351.53;;;11.23;99.63
9141;BME280;46330;50.822;7.126;2023-04-01T15:04:41;99359.38;;;11.23;98.89
9141;BME280;46330;50.822;7.126;2023-04-01T15:13:18;99362.38;;;11.34;98.02
9141;BME280;46330;50.822;7.126;2023-04-01T15:15:59;99372.72;;;11.37;97.64
9141;BME280;46330;50.822;7.126;2023-04-01T15:18:40;99372.53;;;11.42;96.71
9141;BME280;46330;50.822;7.126;2023-04-01T15:21:31;99376.59;;;11.49;96.70
9141;BME280;46330;50.822;7.126;2023-04-01T15:24:14;99380.78;;;11.53;96.33